Time;durP1;ratioP1;P1;durP2;ratioP2;P2;SDS_P1;SDS_P2;PMS_P1;PMS_P2;Temp;Humidity;BMP_temperature;BMP_pressure;BME280_temperature;BME280_humidity;BME280_pressure;Samples;Min_cycle;Max_cycle;Signal;HPM_P1;HPM_P2
2022/11/10 00:00:10;;;;;;;;;;;;;;;-144.99;100.00;52399.19;5071181;28;19952;-65
2022/11/10 00:02:36;;;;;;;;;;;;;;;-144.99;100.00;52397.13;5069400;28;20044;-64
2022/11/10 00:05:04;;;;;;;;;;;;;;;-144.99;100.00;52391.03;5070276;28;20361;-69
2022/11/10 00:07:31;;;;;;;;;;;;;;;-144.99;100.00;52403.25;5070013;28;19995;-64
2022/11/10 00:09:57;;;;;;;;;;;;;;;-144.99;100.00;52403.25;5070241;28;20398;-65
2022/11/10 00:12:24;;;;;;;;;;;;;;;-144.99;100.00;52429.75;5069860;28;19944;-65
2022/11/10 00:17:35;;;;;;;;;;;;;;;-144.99;100.00;52415.47;5070905;28;19968;-65
2022/11/10 00:20:01;;;;;;;;;;;;;;;-144.99;100.00;52407.31;5070626;28;20009;-64
2022/11/10 00:22:29;;;;;;;;;;;;;;;-144.99;100.00;52399.19;5069808;28;19947;-64
2022/11/10 00:24:56;;;;;;;;;;;;;;;-144.99;100.00;52427.72;5065509;28;20066;-64
2022/11/10 00:27:22;;;;;;;;;;;;;;;-144.99;100.00;52444.03;5070184;28;19942;-66
2022/11/10 00:29:49;;;;;;;;;;;;;;;-144.99;100.00;52395.09;5070407;28;20013;-65
2022/11/10 00:32:15;;;;;;;;;;;;;;;-144.99;100.00;52378.78;5069788;28;20066;-64
2022/11/10 00:34:42;;;;;;;;;;;;;;;-144.99;100.00;52415.47;5067386;28;19978;-64
2022/11/10 00:37:08;;;;;;;;;;;;;;;-144.99;100.00;52393.06;5069522;28;20396;-64
2022/11/10 00:39:36;;;;;;;;;;;;;;;-144.99;100.00;52417.53;5069727;28;20404;-65
2022/11/10 00:42:03;;;;;;;;;;;;;;;-144.99;100.00;52427.72;5068995;28;19994;-64
2022/11/10 00:44:30;;;;;;;;;;;;;;;-144.99;100.00;52411.41;5069275;28;20464;-63
2022/11/10 00:46:56;;;;;;;;;;;;;;;-144.99;100.00;52380.84;5069836;28;19960;-63
2022/11/10 00:49:23;;;;;;;;;;;;;;;-144.99;100.00;52407.31;5069530;28;20491;-63
2022/11/10 00:51:49;;;;;;;;;;;;;;;-144.99;100.00;52399.19;5068887;28;19959;-62
2022/11/10 00:54:16;;;;;;;;;;;;;;;-144.99;100.00;52409.38;5069668;28;19987;-63
2022/11/10 00:56:43;;;;;;;;;;;;;;;-144.99;100.00;52419.56;5061893;28;20284;-64
2022/11/10 00:59:10;;;;;;;;;;;;;;;-144.99;100.00;52399.19;5067926;28;20040;-64
2022/11/10 01:01:36;;;;;;;;;;;;;;;-144.99;100.00;52407.31;5070224;28;19962;-64
2022/11/10 01:04:03;;;;;;;;;;;;;;;-144.99;100.00;52386.94;5069122;28;19925;-66
2022/11/10 01:06:30;;;;;;;;;;;;;;;-144.99;100.00;52435.88;5069939;28;20375;-66
2022/11/10 01:08:56;;;;;;;;;;;;;;;-144.99;100.00;52407.31;5069648;28;19949;-67
2022/11/10 01:11:24;;;;;;;;;;;;;;;-144.99;100.00;52399.19;5070673;28;19932;-65
2022/11/10 01:13:52;;;;;;;;;;;;;;;-144.99;100.00;52433.81;5070312;28;20072;-65
2022/11/10 01:16:20;;;;;;;;;;;;;;;-144.99;100.00;52399.19;5069636;28;19943;-65
2022/11/10 01:18:49;;;;;;;;;;;;;;;-144.99;100.00;52431.78;5069693;28;20530;-66
2022/11/10 01:21:15;;;;;;;;;;;;;;;-144.99;100.00;52421.59;5069106;28;19924;-66
2022/11/10 01:23:42;;;;;;;;;;;;;;;-144.99;100.00;52415.47;5067007;28;20023;-66
2022/11/10 01:26:08;;;;;;;;;;;;;;;-144.99;100.00;52391.03;5064213;28;20401;-66
2022/11/10 01:28:36;;;;;;;;;;;;;;;-144.99;100.00;52399.19;5065208;28;19983;-66
2022/11/10 01:31:05;;;;;;;;;;;;;;;-144.99;100.00;52468.47;5069668;28;19967;-67
2022/11/10 01:33:32;;;;;;;;;;;;;;;-144.99;100.00;52419.56;5058799;28;20338;-66
2022/11/10 01:35:58;;;;;;;;;;;;;;;-144.99;100.00;52446.06;5066956;28;20358;-66
2022/11/10 01:38:26;;;;;;;;;;;;;;;-144.99;100.00;52450.13;5068995;28;20028;-65
2022/11/10 01:40:53;;;;;;;;;;;;;;;-144.99;100.00;52429.75;5069194;28;20002;-64
2022/11/10 01:43:19;;;;;;;;;;;;;;;-144.99;100.00;52407.31;5068552;28;20016;-63
2022/11/10 01:45:49;;;;;;;;;;;;;;;-144.99;100.00;52431.78;5068803;28;20056;-65
2022/11/10 01:48:18;;;;;;;;;;;;;;;-144.99;100.00;52399.19;5068519;28;20040;-67
2022/11/10 01:50:46;;;;;;;;;;;;;;;-144.99;100.00;52384.91;5068474;28;20356;-69
2022/11/10 01:53:16;;;;;;;;;;;;;;;-144.99;100.00;52407.31;5068029;28;19978;-69
2022/11/10 01:55:45;;;;;;;;;;;;;;;-144.99;100.00;52415.47;5066254;28;20001;-70
2022/11/10 01:58:13;;;;;;;;;;;;;;;-144.99;100.00;52382.88;5068803;28;19939;-69
2022/11/10 02:00:39;;;;;;;;;;;;;;;-144.99;100.00;52415.47;5069159;28;19963;-68
2022/11/10 02:03:09;;;;;;;;;;;;;;;-144.99;100.00;52407.31;5067971;28;19980;-68
2022/11/10 02:05:37;;;;;;;;;;;;;;;-144.99;100.00;52411.41;5069479;28;20447;-70
2022/11/10 02:08:05;;;;;;;;;;;;;;;-144.99;100.00;52403.25;5068886;28;20319;-70
2022/11/10 02:10:31;;;;;;;;;;;;;;;-144.99;100.00;52417.53;5069188;28;20512;-73
2022/11/10 02:12:58;;;;;;;;;;;;;;;-144.99;100.00;52399.19;5068572;28;20412;-71
2022/11/10 02:15:25;;;;;;;;;;;;;;;-144.99;100.00;52399.19;5069376;28;19954;-73
2022/11/10 02:17:51;;;;;;;;;;;;;;;-144.99;100.00;52401.22;5069601;28;19946;-68
2022/11/10 02:20:20;;;;;;;;;;;;;;;-144.99;100.00;52411.41;5069923;28;19962;-70
2022/11/10 02:22:48;;;;;;;;;;;;;;;-144.99;100.00;52415.47;5071234;28;20063;-73
2022/11/10 02:25:17;;;;;;;;;;;;;;;-144.99;100.00;52460.31;5086692;28;19939;-72
2022/11/10 02:27:44;;;;;;;;;;;;;;;-144.99;100.00;52411.41;5069030;28;19965;-69
2022/11/10 02:30:11;;;;;;;;;;;;;;;-144.99;100.00;52431.78;5062061;28;20022;-69
2022/11/10 02:32:37;;;;;;;;;;;;;;;-144.99;100.00;52427.72;5062690;28;19985;-68
2022/11/10 02:35:04;;;;;;;;;;;;;;;-144.99;100.00;52395.09;5062749;28;20009;-67
2022/11/10 02:37:30;;;;;;;;;;;;;;;-144.99;100.00;52415.47;5060799;28;20061;-71
2022/11/10 02:39:58;;;;;;;;;;;;;;;-144.99;100.00;52374.72;5068497;28;19999;-70
2022/11/10 02:42:27;;;;;;;;;;;;;;;-144.99;100.00;52446.06;5067859;28;20497;-70
2022/11/10 02:44:53;;;;;;;;;;;;;;;-144.99;100.00;52391.03;5068247;28;19988;-71
2022/11/10 02:47:20;;;;;;;;;;;;;;;-144.99;100.00;52403.25;5055808;28;20008;-70
2022/11/10 02:49:47;;;;;;;;;;;;;;;-144.99;100.00;52419.56;5068607;28;19954;-70
2022/11/10 02:52:13;;;;;;;;;;;;;;;-144.99;100.00;52395.09;5066750;28;20360;-70
2022/11/10 02:54:40;;;;;;;;;;;;;;;-144.99;100.00;52439.94;5067685;28;20370;-67
2022/11/10 02:57:08;;;;;;;;;;;;;;;-144.99;100.00;52427.72;5053913;28;19972;-68
2022/11/10 02:59:35;;;;;;;;;;;;;;;-144.99;100.00;52403.25;5067412;28;20028;-69
2022/11/10 03:02:01;;;;;;;;;;;;;;;-144.99;100.00;52444.03;5067306;28;19955;-69
2022/11/10 03:04:28;;;;;;;;;;;;;;;-144.99;100.00;52456.25;5067241;28;20430;-68
2022/11/10 03:06:54;;;;;;;;;;;;;;;-144.99;100.00;52419.56;5068332;28;20026;-68
2022/11/10 03:09:21;;;;;;;;;;;;;;;-144.99;100.00;52407.31;5068156;28;20000;-69
2022/11/10 03:11:47;;;;;;;;;;;;;;;-144.99;100.00;52407.31;5066866;28;20202;-69
2022/11/10 03:14:15;;;;;;;;;;;;;;;-144.99;100.00;52401.22;5067075;28;19998;-69
2022/11/10 03:16:42;;;;;;;;;;;;;;;-144.99;100.00;52405.28;5067678;28;20460;-66
2022/11/10 03:19:08;;;;;;;;;;;;;;;-144.99;100.00;52421.59;5066524;28;19967;-65
2022/11/10 03:21:35;;;;;;;;;;;;;;;-144.99;100.00;52407.31;5066803;28;19986;-64
2022/11/10 03:24:01;;;;;;;;;;;;;;;-144.99;100.00;52411.41;5062220;28;19939;-64
2022/11/10 03:26:28;;;;;;;;;;;;;;;-144.99;100.00;52425.66;5055863;28;20216;-65
2022/11/10 03:28:54;;;;;;;;;;;;;;;-144.99;100.00;52448.09;5067098;28;20430;-65
2022/11/10 03:31:22;;;;;;;;;;;;;;;-144.99;100.00;52474.59;5067812;28;20052;-63
2022/11/10 03:33:49;;;;;;;;;;;;;;;-144.99;100.00;52431.78;5066560;28;19940;-68
2022/11/10 03:36:15;;;;;;;;;;;;;;;-144.99;100.00;52419.56;5065567;28;20447;-68
2022/11/10 03:38:42;;;;;;;;;;;;;;;-144.99;100.00;52446.06;5067049;28;19989;-68
2022/11/10 03:41:08;;;;;;;;;;;;;;;-144.99;100.00;52423.63;5067965;28;19936;-68
2022/11/10 03:43:35;;;;;;;;;;;;;;;-144.99;100.00;52423.63;5067889;28;19942;-66
2022/11/10 03:46:01;;;;;;;;;;;;;;;-144.99;100.00;52399.19;5066735;28;20337;-66
2022/11/10 03:48:29;;;;;;;;;;;;;;;-144.99;100.00;52427.72;5068212;28;20035;-67
2022/11/10 03:50:56;;;;;;;;;;;;;;;-144.99;100.00;52431.78;5069250;28;19965;-65
2022/11/10 03:53:22;;;;;;;;;;;;;;;-144.99;100.00;52448.09;5066533;28;19940;-65
2022/11/10 03:55:49;;;;;;;;;;;;;;;-144.99;100.00;52415.47;5062537;28;20478;-62
2022/11/10 03:58:15;;;;;;;;;;;;;;;-144.99;100.00;52427.72;5058730;28;19953;-62
2022/11/10 04:00:42;;;;;;;;;;;;;;;-144.99;100.00;52403.25;5066271;28;20020;-62
2022/11/10 04:03:08;;;;;;;;;;;;;;;-144.99;100.00;52439.94;5065474;28;19986;-62
2022/11/10 04:11:07;;;;;;;;;;;;;;;-144.99;100.00;52423.63;5065730;28;19973;-63
2022/11/10 04:16:17;;;;;;;;;;;;;;;-144.99;100.00;52415.47;5061216;28;19992;-63
2022/11/10 04:18:44;;;;;;;;;;;;;;;-144.99;100.00;52407.31;5061214;28;20037;-64
2022/11/10 04:21:12;;;;;;;;;;;;;;;-144.99;100.00;52433.81;5065807;28;20170;-64
2022/11/10 04:23:38;;;;;;;;;;;;;;;-144.99;100.00;52415.47;5061788;28;20031;-64
2022/11/10 04:28:51;;;;;;;;;;;;;;;-144.99;100.00;52399.19;5063890;28;19942;-60
2022/11/10 04:31:18;;;;;;;;;;;;;;;-144.99;100.00;52407.31;5062251;28;20046;-60
2022/11/10 04:33:45;;;;;;;;;;;;;;;-144.99;100.00;52407.31;5063871;28;19981;-61
2022/11/10 04:36:13;;;;;;;;;;;;;;;-144.99;100.00;52391.03;5066799;28;19944;-61
2022/11/10 04:38:40;;;;;;;;;;;;;;;-144.99;100.00;52472.56;5064588;28;20432;-62
2022/11/10 04:41:07;;;;;;;;;;;;;;;-144.99;100.00;52427.72;5068923;28;20135;-61
2022/11/10 04:43:34;;;;;;;;;;;;;;;-144.99;100.00;52380.84;5066740;28;19936;-61
2022/11/10 04:46:00;;;;;;;;;;;;;;;-144.99;100.00;52468.47;5065650;28;20001;-65
2022/11/10 04:48:28;;;;;;;;;;;;;;;-144.99;100.00;52431.78;5060287;28;20082;-66
2022/11/10 04:50:54;;;;;;;;;;;;;;;-144.99;100.00;52403.25;5071171;28;20326;-63
2022/11/10 04:53:24;;;;;;;;;;;;;;;-144.99;100.00;52423.63;5069566;28;20021;-66
2022/11/10 04:55:51;;;;;;;;;;;;;;;-144.99;100.00;52456.25;5056582;28;20356;-70
2022/11/10 04:58:17;;;;;;;;;;;;;;;-144.99;100.00;52413.44;5060236;28;20451;-69
2022/11/10 05:00:44;;;;;;;;;;;;;;;-144.99;100.00;52468.47;5076253;23;20491;-71
2022/11/10 05:03:11;;;;;;;;;;;;;;;-144.99;100.00;52431.78;5086707;28;19945;-68
2022/11/10 05:05:38;;;;;;;;;;;;;;;-144.99;100.00;52423.63;5087908;28;20377;-69
2022/11/10 05:08:04;;;;;;;;;;;;;;;-144.99;100.00;52435.88;5086913;28;19964;-70
2022/11/10 05:10:33;;;;;;;;;;;;;;;-144.99;100.00;52431.78;5084160;28;20014;-68
2022/11/10 05:12:59;;;;;;;;;;;;;;;-144.99;100.00;52427.72;5075930;28;20024;-68
2022/11/10 05:15:26;;;;;;;;;;;;;;;-144.99;100.00;52386.94;5070360;28;20461;-72
2022/11/10 05:17:53;;;;;;;;;;;;;;;-144.99;100.00;52439.94;5066248;28;19973;-68
2022/11/10 05:20:21;;;;;;;;;;;;;;;-144.99;100.00;52395.09;5067819;28;20407;-76
2022/11/10 05:23:36;;;;;;;;;;;;;;;-144.99;100.00;52497.00;5080206;28;20037;-68
2022/11/10 05:25:37;;;;;;;;;;;;;;;-144.99;100.00;52413.44;5064904;28;20304;-69
2022/11/10 05:28:04;;;;;;;;;;;;;;;-144.99;100.00;52437.91;5060611;28;20015;-69
2022/11/10 05:30:31;;;;;;;;;;;;;;;-144.99;100.00;52425.66;5062388;28;20066;-69
2022/11/10 05:32:57;;;;;;;;;;;;;;;-144.99;100.00;52435.88;5065711;28;19942;-67
2022/11/10 05:35:24;;;;;;;;;;;;;;;-144.99;100.00;52397.13;5066567;28;20037;-69
2022/11/10 05:37:51;;;;;;;;;;;;;;;-144.99;100.00;52444.03;5055112;28;20331;-68
2022/11/10 05:40:18;;;;;;;;;;;;;;;-144.99;100.00;52382.88;5067927;28;20037;-68
2022/11/10 05:42:46;;;;;;;;;;;;;;;-144.99;100.00;52437.91;5066633;28;20015;-68
2022/11/10 05:45:13;;;;;;;;;;;;;;;-144.99;100.00;52444.03;5067593;28;19966;-68
2022/11/10 05:47:39;;;;;;;;;;;;;;;-144.99;100.00;52417.53;5064073;28;19967;-69
2022/11/10 05:50:07;;;;;;;;;;;;;;;-144.99;100.00;52411.41;5070489;28;19959;-69
2022/11/10 05:52:33;;;;;;;;;;;;;;;-144.99;100.00;52419.56;5060101;28;19952;-68
2022/11/10 05:55:00;;;;;;;;;;;;;;;-144.99;100.00;52399.19;5073616;28;20028;-69
2022/11/10 05:57:26;;;;;;;;;;;;;;;-144.99;100.00;52431.78;5065829;28;20030;-68
2022/11/10 05:59:54;;;;;;;;;;;;;;;-144.99;100.00;52386.94;5059963;28;20055;-69
2022/11/10 06:02:20;;;;;;;;;;;;;;;-144.99;100.00;52431.78;5060272;28;20052;-73
2022/11/10 06:04:47;;;;;;;;;;;;;;;-144.99;100.00;52415.47;5059510;28;19941;-67
2022/11/10 06:07:13;;;;;;;;;;;;;;;-144.99;100.00;52411.41;5060977;28;20487;-67
2022/11/10 06:09:40;;;;;;;;;;;;;;;-144.99;100.00;52397.13;5061791;28;19936;-67
2022/11/10 06:12:07;;;;;;;;;;;;;;;-144.99;100.00;52403.25;5067854;28;20033;-67
2022/11/10 06:14:33;;;;;;;;;;;;;;;-144.99;100.00;52415.47;5077426;28;20435;-68
2022/11/10 06:17:01;;;;;;;;;;;;;;;-144.99;100.00;52421.59;5068351;28;20033;-67
2022/11/10 06:19:28;;;;;;;;;;;;;;;-144.99;100.00;52419.56;5066102;28;19939;-79
2022/11/10 06:21:54;;;;;;;;;;;;;;;-144.99;100.00;52435.88;4363517;28;10000829;-79
2022/11/10 06:24:21;;;;;;;;;;;;;;;-144.99;100.00;52399.19;5079943;28;19926;-80
2022/11/10 06:26:47;;;;;;;;;;;;;;;-144.99;100.00;52435.88;5077563;28;20511;-78
2022/11/10 06:29:14;;;;;;;;;;;;;;;-144.99;100.00;52391.03;5058038;28;20001;-78
2022/11/10 06:31:40;;;;;;;;;;;;;;;-144.99;100.00;52439.94;5067145;28;20362;-78
2022/11/10 06:34:08;;;;;;;;;;;;;;;-144.99;100.00;52415.47;5078215;28;20015;-77
2022/11/10 06:36:35;;;;;;;;;;;;;;;-144.99;100.00;52403.25;5065213;28;19949;-78
2022/11/10 06:39:01;;;;;;;;;;;;;;;-144.99;100.00;52391.03;5059889;28;20056;-78
2022/11/10 06:41:28;;;;;;;;;;;;;;;-144.99;100.00;52415.47;5056361;28;20522;-77
2022/11/10 06:43:55;;;;;;;;;;;;;;;-144.99;100.00;52450.13;5058958;28;19972;-78
2022/11/10 06:46:21;;;;;;;;;;;;;;;-144.99;100.00;52407.31;5064569;28;20025;-77
2022/11/10 06:48:48;;;;;;;;;;;;;;;-144.99;100.00;52415.47;5051135;28;20387;-77
2022/11/10 06:51:16;;;;;;;;;;;;;;;-144.99;100.00;52464.41;5062587;28;20099;-78
2022/11/10 06:53:43;;;;;;;;;;;;;;;-144.99;100.00;52460.31;5062612;28;20049;-78
2022/11/10 06:56:09;;;;;;;;;;;;;;;-144.99;100.00;52431.78;5064905;28;20027;-80
2022/11/10 06:58:36;;;;;;;;;;;;;;;-144.99;100.00;52415.47;5056201;28;20420;-77
2022/11/10 07:01:02;;;;;;;;;;;;;;;-144.99;100.00;52433.81;5056426;28;19984;-78
2022/11/10 07:03:29;;;;;;;;;;;;;;;-144.99;100.00;52444.03;5064783;28;20528;-78
2022/11/10 07:05:55;;;;;;;;;;;;;;;-144.99;100.00;52403.25;5069655;28;19982;-80
2022/11/10 07:08:23;;;;;;;;;;;;;;;-144.99;100.00;52401.22;5065722;28;20174;-79
2022/11/10 07:10:52;;;;;;;;;;;;;;;-144.99;100.00;52468.47;5075392;28;19967;-79
2022/11/10 07:13:18;;;;;;;;;;;;;;;-144.99;100.00;52395.09;5066327;28;20352;-78
2022/11/10 07:15:45;;;;;;;;;;;;;;;-144.99;100.00;52407.31;5065541;28;20170;-79
2022/11/10 07:18:11;;;;;;;;;;;;;;;-144.99;100.00;52403.25;5065881;28;19950;-80
2022/11/10 07:20:38;;;;;;;;;;;;;;;-144.99;100.00;52407.31;5066030;28;20056;-79
2022/11/10 07:23:06;;;;;;;;;;;;;;;-144.99;100.00;52395.09;5070306;28;20018;-78
2022/11/10 07:25:35;;;;;;;;;;;;;;;-144.99;100.00;52423.63;5055680;28;20041;-79
2022/11/10 07:28:02;;;;;;;;;;;;;;;-144.99;100.00;52435.88;5056869;28;20516;-78
2022/11/10 07:30:30;;;;;;;;;;;;;;;-144.99;100.00;52374.72;5050719;28;20408;-79
2022/11/10 07:33:00;;;;;;;;;;;;;;;-144.99;100.00;52374.72;5067357;28;19947;-78
2022/11/10 07:35:27;;;;;;;;;;;;;;;-144.99;100.00;52427.72;5085072;28;19942;-78
2022/11/10 07:37:54;;;;;;;;;;;;;;;-144.99;100.00;52374.72;5066277;28;20039;-78
2022/11/10 07:40:20;;;;;;;;;;;;;;;-144.99;100.00;52374.72;5055644;28;20154;-79
2022/11/10 07:42:48;;;;;;;;;;;;;;;-144.99;100.00;52395.09;5080481;28;20075;-79
2022/11/10 07:45:14;;;;;;;;;;;;;;;-144.99;100.00;52374.72;5063908;28;19981;-78
2022/11/10 07:47:41;;;;;;;;;;;;;;;-144.99;100.00;52419.56;5051628;28;19960;-79
2022/11/10 07:50:08;;;;;;;;;;;;;;;-144.99;100.00;52397.13;4725904;28;9999846;-79
2022/11/10 07:52:35;;;;;;;;;;;;;;;-144.99;100.00;52419.56;5059922;28;20045;-79
2022/11/10 07:55:01;;;;;;;;;;;;;;;-144.99;100.00;52419.56;5065694;28;19939;-79
2022/11/10 07:57:28;;;;;;;;;;;;;;;-144.99;100.00;52407.31;4714282;28;10000281;-79
2022/11/10 07:59:55;;;;;;;;;;;;;;;-144.99;100.00;52386.94;5055469;28;20014;-79
2022/11/10 08:02:22;;;;;;;;;;;;;;;-144.99;100.00;52372.69;5070294;28;19953;-78
2022/11/10 08:04:48;;;;;;;;;;;;;;;-144.99;100.00;52362.50;5067394;28;20058;-77
2022/11/10 08:07:15;;;;;;;;;;;;;;;-144.99;100.00;52386.94;5067450;28;20438;-77
2022/11/10 08:09:41;;;;;;;;;;;;;;;-144.99;100.00;52417.53;5067743;28;20011;-78
2022/11/10 08:12:08;;;;;;;;;;;;;;;-144.99;100.00;52360.44;5062106;28;19975;-79
2022/11/10 08:14:34;;;;;;;;;;;;;;;-144.99;100.00;52413.44;5073790;28;19959;-78
2022/11/10 08:17:02;;;;;;;;;;;;;;;-144.99;100.00;52407.31;5059969;28;20021;-78
2022/11/10 08:19:29;;;;;;;;;;;;;;;-144.99;100.00;52415.47;5068754;28;20069;-79
2022/11/10 08:21:55;;;;;;;;;;;;;;;-144.99;100.00;52419.56;5069804;28;20008;-77
2022/11/10 08:24:22;;;;;;;;;;;;;;;-144.99;100.00;52399.19;5068945;28;20453;-77
2022/11/10 08:26:48;;;;;;;;;;;;;;;-144.99;100.00;52374.72;5071113;28;19982;-78
2022/11/10 08:29:15;;;;;;;;;;;;;;;-144.99;100.00;52395.09;5064491;28;20044;-77
2022/11/10 08:31:41;;;;;;;;;;;;;;;-144.99;100.00;52431.78;5069015;28;19960;-78
2022/11/10 08:34:09;;;;;;;;;;;;;;;-144.99;100.00;52382.88;5070009;28;19994;-77
2022/11/10 08:36:36;;;;;;;;;;;;;;;-144.99;100.00;52397.13;5056014;28;19948;-78
2022/11/10 08:39:03;;;;;;;;;;;;;;;-144.99;100.00;52407.31;5068941;28;20462;-78
2022/11/10 08:41:30;;;;;;;;;;;;;;;-144.99;100.00;52423.63;5058828;28;19994;-78
2022/11/10 08:43:56;;;;;;;;;;;;;;;-144.99;100.00;52366.56;5066739;28;20047;-78
2022/11/10 08:46:23;;;;;;;;;;;;;;;-144.99;100.00;52376.75;5061514;28;19988;-78
2022/11/10 08:48:49;;;;;;;;;;;;;;;-144.99;100.00;52342.09;5060671;28;19998;-78
2022/11/10 08:51:17;;;;;;;;;;;;;;;-144.99;100.00;52364.53;5066580;28;20217;-78
2022/11/10 08:53:44;;;;;;;;;;;;;;;-144.99;100.00;52380.84;5053424;28;20014;-78
2022/11/10 08:56:10;;;;;;;;;;;;;;;-144.99;100.00;52370.63;5056197;28;20002;-78
2022/11/10 08:58:37;;;;;;;;;;;;;;;-144.99;100.00;52403.25;5060990;28;20041;-78
2022/11/10 09:01:07;;;;;;;;;;;;;;;-144.99;100.00;52358.41;5065406;28;19982;-78
2022/11/10 09:03:34;;;;;;;;;;;;;;;-144.99;100.00;52370.63;5065801;28;20291;-78
2022/11/10 09:06:00;;;;;;;;;;;;;;;-144.99;100.00;52358.41;5066744;28;20309;-78
2022/11/10 09:08:29;;;;;;;;;;;;;;;-144.99;100.00;52380.84;5068297;28;20149;-78
2022/11/10 09:10:56;;;;;;;;;;;;;;;-144.99;100.00;52338.03;5066685;28;20068;-78
2022/11/10 09:13:22;;;;;;;;;;;;;;;-144.99;100.00;52362.50;5065896;28;19950;-78
2022/11/10 09:15:49;;;;;;;;;;;;;;;-144.99;100.00;52378.78;5066183;28;20065;-77
2022/11/10 09:18:16;;;;;;;;;;;;;;;-144.99;100.00;52391.03;5066155;28;20041;-78
2022/11/10 09:20:42;;;;;;;;;;;;;;;-144.99;100.00;52370.63;5066528;28;20367;-78
2022/11/10 09:23:11;;;;;;;;;;;;;;;-144.99;100.00;52360.44;5065300;28;20015;-80
2022/11/10 09:25:39;;;;;;;;;;;;;;;-144.99;100.00;52366.56;5050465;28;20383;-79
2022/11/10 09:28:06;;;;;;;;;;;;;;;-144.99;100.00;52374.72;5060368;28;19963;-79
2022/11/10 09:30:32;;;;;;;;;;;;;;;-144.99;100.00;52358.41;5066187;28;20030;-78
2022/11/10 09:33:00;;;;;;;;;;;;;;;-144.99;100.00;52358.41;5065135;28;20053;-78
2022/11/10 09:35:26;;;;;;;;;;;;;;;-144.99;100.00;52401.22;5065273;28;20232;-79
2022/11/10 09:37:53;;;;;;;;;;;;;;;-144.99;100.00;52368.59;5065179;28;19949;-79
2022/11/10 09:40:22;;;;;;;;;;;;;;;-144.99;100.00;52354.34;5067858;28;20005;-79
2022/11/10 09:42:53;;;;;;;;;;;;;;;-144.99;100.00;52350.25;5057464;28;19978;-79
2022/11/10 09:45:24;;;;;;;;;;;;;;;-144.99;100.00;52382.88;5085746;28;19932;-79
2022/11/10 09:47:57;;;;;;;;;;;;;;;-144.99;99.62;52362.50;5062854;28;20031;-78
2022/11/10 09:50:29;;;;;;;;;;;;;;;-144.99;99.90;52399.19;5061029;28;20429;-79
2022/11/10 09:52:56;;;;;;;;;;;;;;;-144.99;99.18;52386.94;5057583;28;20180;-78
2022/11/10 09:55:29;;;;;;;;;;;;;;;-144.99;98.79;52338.03;5064899;28;20040;-79
2022/11/10 09:57:58;;;;;;;;;;;;;;;-144.99;98.07;52352.28;5087536;28;19948;-79
2022/11/10 10:00:25;;;;;;;;;;;;;;;-144.99;97.51;52376.75;5083392;28;19963;-78
2022/11/10 10:02:54;;;;;;;;;;;;;;;-144.99;97.13;52393.06;5066467;28;19955;-78
2022/11/10 10:05:38;;;;;;;;;;;;;;;-144.99;96.56;52348.22;5069894;28;20034;-78
2022/11/10 10:08:06;;;;;;;;;;;;;;;-144.99;96.61;52338.03;5084317;28;20011;-78
2022/11/10 10:10:34;;;;;;;;;;;;;;;-144.99;95.84;52376.75;5067741;28;20513;-78
2022/11/10 10:13:10;;;;;;;;;;;;;;;-144.99;96.28;52358.41;5070363;28;19985;-78
2022/11/10 10:15:43;;;;;;;;;;;;;;;-144.99;96.60;52333.94;5065390;28;20062;-78
2022/11/10 10:18:15;;;;;;;;;;;;;;;-144.99;98.20;52399.19;5062578;28;20426;-78
2022/11/10 10:20:46;;;;;;;;;;;;;;;-144.99;98.82;52415.47;5054282;28;20053;-78
2022/11/10 10:23:16;;;;;;;;;;;;;;;-144.99;98.76;52360.44;5063458;28;20012;-78
2022/11/10 10:25:45;;;;;;;;;;;;;;;-144.99;97.80;52374.72;5067522;28;20007;-77
2022/11/10 10:28:16;;;;;;;;;;;;;;;-144.99;95.25;52317.66;5062865;28;20465;-78
2022/11/10 10:30:43;;;;;;;;;;;;;;;-144.99;91.64;52342.09;5070852;28;19928;-78
2022/11/10 10:33:13;;;;;;;;;;;;;;;-144.99;90.35;52338.03;5052146;28;20621;-78
2022/11/10 10:35:40;;;;;;;;;;;;;;;-144.99;90.31;52360.44;5078016;28;19968;-77
2022/11/10 10:38:16;;;;;;;;;;;;;;;-144.99;89.18;52378.78;5065459;28;19984;-78
2022/11/10 10:40:44;;;;;;;;;;;;;;;-144.99;90.04;52374.72;5054427;28;19994;-78
2022/11/10 10:43:15;;;;;;;;;;;;;;;-144.99;90.66;52354.34;5072216;28;20346;-78
2022/11/10 10:45:41;;;;;;;;;;;;;;;-144.99;91.17;52382.88;5068195;28;20051;-77
2022/11/10 10:48:23;;;;;;;;;;;;;;;-144.99;91.65;52419.56;5053372;28;20240;-77
2022/11/10 10:50:49;;;;;;;;;;;;;;;-144.99;92.23;52393.06;5070005;28;19971;-78
2022/11/10 10:53:17;;;;;;;;;;;;;;;-144.99;91.79;52370.63;5077263;28;20279;-78
2022/11/10 10:55:47;;;;;;;;;;;;;;;-144.99;91.92;52342.09;5062882;28;20397;-77
2022/11/10 10:58:26;;;;;;;;;;;;;;;-144.99;91.18;52378.78;5063784;28;19928;-77
2022/11/10 11:00:55;;;;;;;;;;;;;;;-144.99;91.27;52333.94;5064979;28;19964;-78
2022/11/10 11:03:27;;;;;;;;;;;;;;;-144.99;91.71;52338.03;5078967;22;20402;-73
2022/11/10 11:06:01;;;;;;;;;;;;;;;-144.99;90.36;52358.41;5076826;28;19955;-70
2022/11/10 11:08:28;;;;;;;;;;;;;;;-144.99;89.71;52386.94;5080724;28;19962;-71
2022/11/10 11:10:54;;;;;;;;;;;;;;;-144.99;90.16;52329.88;5080806;28;19956;-71
2022/11/10 11:13:23;;;;;;;;;;;;;;;-144.99;90.16;52372.69;5069460;28;19993;-71
2022/11/10 11:15:58;;;;;;;;;;;;;;;-144.99;90.44;52360.44;5063761;28;19955;-72
2022/11/10 11:18:25;;;;;;;;;;;;;;;-144.99;90.20;52382.88;5063958;28;20158;-73
2022/11/10 11:21:00;;;;;;;;;;;;;;;-144.99;91.14;52407.31;4711620;28;9999898;-70
2022/11/10 11:23:43;;;;;;;;;;;;;;;-144.99;91.89;52399.19;5050235;28;19967;-71
2022/11/10 11:26:16;;;;;;;;;;;;;;;-144.99;91.54;52395.09;5060090;28;20356;-72
2022/11/10 11:28:47;;;;;;;;;;;;;;;-144.99;90.69;52348.22;5059104;28;20457;-71
2022/11/10 11:31:19;;;;;;;;;;;;;;;-144.99;89.71;52362.50;5057401;28;20203;-73
2022/11/10 11:33:47;;;;;;;;;;;;;;;-144.99;89.96;52358.41;5083861;28;20013;-71
2022/11/10 11:36:22;;;;;;;;;;;;;;;-144.99;90.42;52352.28;5086012;28;19954;-72
2022/11/10 11:38:53;;;;;;;;;;;;;;;-144.99;89.93;52354.34;5088290;28;20575;-72
2022/11/10 11:41:26;;;;;;;;;;;;;;;-144.99;90.26;52376.75;5084127;28;19958;-71
2022/11/10 11:44:09;;;;;;;;;;;;;;;-144.99;88.96;52350.25;5085543;28;19964;-72
2022/11/10 11:46:40;;;;;;;;;;;;;;;-144.99;87.63;52350.25;5069243;28;20029;-70
2022/11/10 11:49:26;;;;;;;;;;;;;;;-144.99;88.18;52368.59;5074609;28;19995;-72
2022/11/10 11:51:54;;;;;;;;;;;;;;;-144.99;88.23;52391.03;5062935;28;20016;-71
2022/11/10 11:54:27;;;;;;;;;;;;;;;-144.99;89.17;52374.72;5058556;28;20009;-72
2022/11/10 11:56:59;;;;;;;;;;;;;;;-144.99;90.11;52329.88;5054458;28;19939;-70
2022/11/10 11:59:34;;;;;;;;;;;;;;;-144.99;90.62;52364.53;5070351;28;19946;-72
2022/11/10 12:02:13;;;;;;;;;;;;;;;-144.99;90.34;52399.19;5067524;28;20024;-70
2022/11/10 12:04:44;;;;;;;;;;;;;;;-144.99;90.86;52423.63;5077528;28;19978;-71
2022/11/10 12:07:22;;;;;;;;;;;;;;;-144.99;90.95;52391.03;5082919;28;20409;-72
2022/11/10 12:09:50;;;;;;;;;;;;;;;-144.99;90.53;52413.44;5060850;28;20013;-71
2022/11/10 12:12:32;;;;;;;;;;;;;;;-144.99;91.23;52395.09;5066693;28;19964;-70
2022/11/10 12:15:04;;;;;;;;;;;;;;;-144.99;92.16;52403.25;5085934;28;20483;-71
2022/11/10 12:17:40;;;;;;;;;;;;;;;-144.99;92.09;52378.78;5068373;28;20081;-72
2022/11/10 12:20:17;;;;;;;;;;;;;;;-144.99;92.74;52431.78;5088831;28;20008;-73
2022/11/10 12:22:53;;;;;;;;;;;;;;;-144.99;92.45;52421.59;5080012;28;19966;-73
2022/11/10 12:25:23;;;;;;;;;;;;;;;-144.99;92.90;52399.19;5068955;28;20220;-71
2022/11/10 12:27:53;;;;;;;;;;;;;;;-144.99;92.99;52399.19;5066360;28;20463;-74
2022/11/10 12:30:20;;;;;;;;;;;;;;;-144.99;92.30;52386.94;5067886;28;20433;-73
2022/11/10 12:32:50;;;;;;;;;;;;;;;-144.99;93.04;52370.63;5062264;28;19954;-71
2022/11/10 12:35:19;;;;;;;;;;;;;;;-144.99;93.15;52378.78;5053147;28;20006;-71